Widnoon, Pennsylvania
Current Conditions -  °F | °C
As of 1:55 AM on Thursday 23 Oct 2014 (Local Time) from KBTP Reporting Station
Scattered Clouds Scattered Clouds  
Wind Chill: 41°   Ceiling: Unl
Heat Index: 41°   Visibility: 10mi
Dew Point: 36°   Wind: 3mph
Humidity: 81%   Direction: 270°W
Pressure: 30.14"   Gusts: NA
Location:  40.96°N, 79.47°W
Report Text: KBTP 230555Z AUTO 27003KT 10SM FEW026 SCT044 05/02 A3014 RMK AO1 10080 20050 57017
Loading
Personal Weather Stations






























Interactive Weather Map
Tropical Storm Tracking
New forecast layout! Learn more

10-Day Weather Forecast

Advertisements
Track Severe Weather on mobile